sensor_id;sensor_type;location;lat;lon;timestamp;pressure;altitude;pressure_sealevel;temperature;humidity
79123;BME280;68526;44.600;26.032;2023-06-10T00:00:15;99970.03;;;17.28;65.87
79123;BME280;68526;44.600;26.032;2023-06-10T00:00:31;99971.63;;;17.29;65.71
79123;BME280;68526;44.600;26.032;2023-06-10T00:00:48;99957.78;;;17.29;65.90
79123;BME280;68526;44.600;26.032;2023-06-10T00:01:03;99965.28;;;17.29;65.51
79123;BME280;68526;44.600;26.032;2023-06-10T00:01:20;99959.75;;;17.29;65.80
79123;BME280;68526;44.600;26.032;2023-06-10T00:01:38;99954.22;;;17.29;65.75
79123;BME280;68526;44.600;26.032;2023-06-10T00:01:53;99970.41;;;17.27;65.84
79123;BME280;68526;44.600;26.032;2023-06-10T00:02:13;99957.34;;;17.27;65.78
79123;BME280;68526;44.600;26.032;2023-06-10T00:02:29;99958.94;;;17.28;65.77
79123;BME280;68526;44.600;26.032;2023-06-10T00:02:45;99964.47;;;17.28;65.74
79123;BME280;68526;44.600;26.032;2023-06-10T00:03:01;99959.75;;;17.29;65.99
79123;BME280;68526;44.600;26.032;2023-06-10T00:03:18;99960.53;;;17.29;65.73
79123;BME280;68526;44.600;26.032;2023-06-10T00:03:34;99943.03;;;17.22;65.74
79123;BME280;68526;44.600;26.032;2023-06-10T00:03:51;99957.34;;;17.27;65.76
79123;BME280;68526;44.600;26.032;2023-06-10T00:04:07;99956.91;;;17.25;65.84
79123;BME280;68526;44.600;26.032;2023-06-10T00:04:23;99952.22;;;17.26;65.87
79123;BME280;68526;44.600;26.032;2023-06-10T00:04:40;99949.44;;;17.26;65.75
79123;BME280;68526;44.600;26.032;2023-06-10T00:04:56;99956.56;;;17.27;65.85
79123;BME280;68526;44.600;26.032;2023-06-10T00:05:12;99956.56;;;17.27;65.86
79123;BME280;68526;44.600;26.032;2023-06-10T00:05:28;99949.06;;;17.27;65.76
79123;BME280;68526;44.600;26.032;2023-06-10T00:05:45;99945.09;;;17.28;65.74
79123;BME280;68526;44.600;26.032;2023-06-10T00:06:01;99944.31;;;17.28;65.94
79123;BME280;68526;44.600;26.032;2023-06-10T00:06:18;99948.66;;;17.29;65.81
79123;BME280;68526;44.600;26.032;2023-06-10T00:06:33;99943.50;;;17.27;65.77
79123;BME280;68526;44.600;26.032;2023-06-10T00:06:51;99949.47;;;17.29;66.07
79123;BME280;68526;44.600;26.032;2023-06-10T00:07:07;99949.47;;;17.29;65.97
79123;BME280;68526;44.600;26.032;2023-06-10T00:07:24;99943.94;;;17.29;65.95
79123;BME280;68526;44.600;26.032;2023-06-10T00:07:39;99946.69;;;17.29;66.03
79123;BME280;68526;44.600;26.032;2023-06-10T00:07:56;99953.03;;;17.30;66.12
79123;BME280;68526;44.600;26.032;2023-06-10T00:08:13;99947.47;;;17.26;66.31
79123;BME280;68526;44.600;26.032;2023-06-10T00:08:34;99947.88;;;17.28;66.20
79123;BME280;68526;44.600;26.032;2023-06-10T00:08:50;99943.50;;;17.27;66.23
79123;BME280;68526;44.600;26.032;2023-06-10T00:09:06;99946.28;;;17.27;66.46
79123;BME280;68526;44.600;26.032;2023-06-10T00:09:25;99952.63;;;17.28;66.40
79123;BME280;68526;44.600;26.032;2023-06-10T00:09:42;99947.09;;;17.28;66.27
79123;BME280;68526;44.600;26.032;2023-06-10T00:09:57;99946.69;;;17.29;66.37
79123;BME280;68526;44.600;26.032;2023-06-10T00:10:13;99945.09;;;17.28;66.39
79123;BME280;68526;44.600;26.032;2023-06-10T00:10:29;99944.31;;;17.28;66.19
79123;BME280;68526;44.600;26.032;2023-06-10T00:10:46;99944.69;;;17.26;66.41
79123;BME280;68526;44.600;26.032;2023-06-10T00:11:02;99949.06;;;17.27;66.61
79123;BME280;68526;44.600;26.032;2023-06-10T00:11:17;99940.75;;;17.27;66.33
79123;BME280;68526;44.600;26.032;2023-06-10T00:11:33;99945.50;;;17.27;66.45
79123;BME280;68526;44.600;26.032;2023-06-10T00:11:49;99944.69;;;17.26;66.56
79123;BME280;68526;44.600;26.032;2023-06-10T00:12:07;99941.94;;;17.26;66.56
79123;BME280;68526;44.600;26.032;2023-06-10T00:12:25;99937.97;;;17.27;66.40
79123;BME280;68526;44.600;26.032;2023-06-10T00:12:41;99940.75;;;17.27;66.30
79123;BME280;68526;44.600;26.032;2023-06-10T00:12:57;99947.09;;;17.28;66.47
79123;BME280;68526;44.600;26.032;2023-06-10T00:13:13;99940.75;;;17.27;66.40
79123;BME280;68526;44.600;26.032;2023-06-10T00:13:29;99945.50;;;17.27;66.58
79123;BME280;68526;44.600;26.032;2023-06-10T00:13:45;99946.28;;;17.27;66.53
79123;BME280;68526;44.600;26.032;2023-06-10T00:14:01;99942.72;;;17.27;66.50
79123;BME280;68526;44.600;26.032;2023-06-10T00:14:17;99939.16;;;17.26;66.48
79123;BME280;68526;44.600;26.032;2023-06-10T00:14:33;99943.50;;;17.27;66.48
79123;BME280;68526;44.600;26.032;2023-06-10T00:14:48;99940.75;;;17.27;66.51
79123;BME280;68526;44.600;26.032;2023-06-10T00:15:07;99941.94;;;17.26;66.78
79123;BME280;68526;44.600;26.032;2023-06-10T00:15:23;99939.50;;;17.25;66.65
79123;BME280;68526;44.600;26.032;2023-06-10T00:15:39;99939.50;;;17.25;66.60
79123;BME280;68526;44.600;26.032;2023-06-10T00:15:55;99933.97;;;17.25;66.49
79123;BME280;68526;44.600;26.032;2023-06-10T00:16:11;99937.97;;;17.27;66.61
79123;BME280;68526;44.600;26.032;2023-06-10T00:16:27;99943.50;;;17.27;66.64
79123;BME280;68526;44.600;26.032;2023-06-10T00:16:43;99941.53;;;17.28;66.83
79123;BME280;68526;44.600;26.032;2023-06-10T00:17:00;99943.91;;;17.26;66.83
79123;BME280;68526;44.600;26.032;2023-06-10T00:17:16;99936.38;;;17.26;67.01
79123;BME280;68526;44.600;26.032;2023-06-10T00:17:32;99939.16;;;17.26;66.84
79123;BME280;68526;44.600;26.032;2023-06-10T00:17:48;99941.94;;;17.26;66.85
79123;BME280;68526;44.600;26.032;2023-06-10T00:18:04;99941.13;;;17.26;66.85
79123;BME280;68526;44.600;26.032;2023-06-10T00:18:21;99935.94;;;17.24;66.74
79123;BME280;68526;44.600;26.032;2023-06-10T00:18:37;99941.47;;;17.24;66.72
79123;BME280;68526;44.600;26.032;2023-06-10T00:18:54;99944.25;;;17.24;66.94
79123;BME280;68526;44.600;26.032;2023-06-10T00:19:11;99943.91;;;17.26;66.75
79123;BME280;68526;44.600;26.032;2023-06-10T00:19:29;99939.16;;;17.26;66.79
79123;BME280;68526;44.600;26.032;2023-06-10T00:19:45;99933.94;;;17.21;67.09
79123;BME280;68526;44.600;26.032;2023-06-10T00:20:02;99937.50;;;17.22;66.79
79123;BME280;68526;44.600;26.032;2023-06-10T00:20:24;99937.13;;;17.23;66.85
79123;BME280;68526;44.600;26.032;2023-06-10T00:20:40;99935.94;;;17.24;66.86
79123;BME280;68526;44.600;26.032;2023-06-10T00:20:56;99940.28;;;17.22;66.79
79123;BME280;68526;44.600;26.032;2023-06-10T00:21:12;99935.16;;;17.24;66.62
79123;BME280;68526;44.600;26.032;2023-06-10T00:21:29;99942.66;;;17.23;66.68
79123;BME280;68526;44.600;26.032;2023-06-10T00:21:52;99939.91;;;17.23;66.63
79123;BME280;68526;44.600;26.032;2023-06-10T00:22:08;99935.16;;;17.24;66.65
79123;BME280;68526;44.600;26.032;2023-06-10T00:22:24;99936.31;;;17.23;66.39
79123;BME280;68526;44.600;26.032;2023-06-10T00:22:44;99936.75;;;17.25;66.28
79123;BME280;68526;44.600;26.032;2023-06-10T00:23:01;99931.97;;;17.22;66.59
79123;BME280;68526;44.600;26.032;2023-06-10T00:23:18;99937.53;;;17.25;66.57
79123;BME280;68526;44.600;26.032;2023-06-10T00:23:35;99936.31;;;17.23;66.65
79123;BME280;68526;44.600;26.032;2023-06-10T00:23:53;99932.38;;;17.24;66.61
79123;BME280;68526;44.600;26.032;2023-06-10T00:24:09;99934.34;;;17.23;66.69
79123;BME280;68526;44.600;26.032;2023-06-10T00:24:27;99936.75;;;17.25;66.70
79123;BME280;68526;44.600;26.032;2023-06-10T00:24:43;99944.25;;;17.24;66.46
79123;BME280;68526;44.600;26.032;2023-06-10T00:24:59;99935.94;;;17.24;66.51
79123;BME280;68526;44.600;26.032;2023-06-10T00:25:15;99928.03;;;17.23;66.66
79123;BME280;68526;44.600;26.032;2023-06-10T00:25:31;99942.66;;;17.23;66.61
79123;BME280;68526;44.600;26.032;2023-06-10T00:25:48;99943.47;;;17.24;66.43
79123;BME280;68526;44.600;26.032;2023-06-10T00:26:04;99937.13;;;17.23;66.72
79123;BME280;68526;44.600;26.032;2023-06-10T00:26:20;99942.28;;;17.25;66.60
79123;BME280;68526;44.600;26.032;2023-06-10T00:26:36;99929.22;;;17.22;66.21
79123;BME280;68526;44.600;26.032;2023-06-10T00:26:52;99937.91;;;17.24;66.56
79123;BME280;68526;44.600;26.032;2023-06-10T00:27:08;99945.84;;;17.25;66.49
79123;BME280;68526;44.600;26.032;2023-06-10T00:27:24;99933.19;;;17.24;66.52
79123;BME280;68526;44.600;26.032;2023-06-10T00:27:41;99940.31;;;17.25;66.53
79123;BME280;68526;44.600;26.032;2023-06-10T00:27:57;99942.28;;;17.25;66.55
79123;BME280;68526;44.600;26.032;2023-06-10T00:28:14;99935.94;;;17.24;66.41
79123;BME280;68526;44.600;26.032;2023-06-10T00:28:30;99940.69;;;17.24;66.52
79123;BME280;68526;44.600;26.032;2023-06-10T00:28:46;99936.75;;;17.25;66.54
79123;BME280;68526;44.600;26.032;2023-06-10T00:29:01;99940.69;;;17.24;66.34
79123;BME280;68526;44.600;26.032;2023-06-10T00:29:19;99945.03;;;17.25;66.42
79123;BME280;68526;44.600;26.032;2023-06-10T00:29:36;99926.84;;;17.24;66.40
79123;BME280;68526;44.600;26.032;2023-06-10T00:29:51;99930.41;;;17.24;66.29
79123;BME280;68526;44.600;26.032;2023-06-10T00:30:08;99937.50;;;17.22;66.61
79123;BME280;68526;44.600;26.032;2023-06-10T00:30:24;99937.50;;;17.22;66.55
79123;BME280;68526;44.600;26.032;2023-06-10T00:30:40;99935.13;;;17.20;66.68
79123;BME280;68526;44.600;26.032;2023-06-10T00:30:56;99940.66;;;17.20;66.53
79123;BME280;68526;44.600;26.032;2023-06-10T00:31:13;99936.31;;;17.23;66.54
79123;BME280;68526;44.600;26.032;2023-06-10T00:31:28;99942.25;;;17.21;66.45
79123;BME280;68526;44.600;26.032;2023-06-10T00:31:45;99943.03;;;17.22;66.59
79123;BME280;68526;44.600;26.032;2023-06-10T00:32:01;99938.69;;;17.21;66.66
79123;BME280;68526;44.600;26.032;2023-06-10T00:32:17;99943.84;;;17.22;66.92
79123;BME280;68526;44.600;26.032;2023-06-10T00:32:33;99937.44;;;17.18;66.75
79123;BME280;68526;44.600;26.032;2023-06-10T00:32:49;99937.09;;;17.20;66.72
79123;BME280;68526;44.600;26.032;2023-06-10T00:33:05;99939.47;;;17.21;66.76
79123;BME280;68526;44.600;26.032;2023-06-10T00:33:21;99936.28;;;17.19;66.89
79123;BME280;68526;44.600;26.032;2023-06-10T00:33:37;99942.25;;;17.21;66.71
79123;BME280;68526;44.600;26.032;2023-06-10T00:33:52;99929.91;;;17.15;66.54
79123;BME280;68526;44.600;26.032;2023-06-10T00:34:09;99945.41;;;17.20;66.83
79123;BME280;68526;44.600;26.032;2023-06-10T00:34:25;99939.47;;;17.21;66.80
79123;BME280;68526;44.600;26.032;2023-06-10T00:34:41;99940.66;;;17.20;66.66
79123;BME280;68526;44.600;26.032;2023-06-10T00:34:56;99937.09;;;17.20;66.75
79123;BME280;68526;44.600;26.032;2023-06-10T00:35:12;99931.91;;;17.18;66.81
79123;BME280;68526;44.600;26.032;2023-06-10T00:35:29;99937.81;;;17.17;66.87
79123;BME280;68526;44.600;26.032;2023-06-10T00:35:45;99937.41;;;17.15;66.89
79123;BME280;68526;44.600;26.032;2023-06-10T00:36:00;99943.31;;;17.13;67.15
79123;BME280;68526;44.600;26.032;2023-06-10T00:36:16;99936.63;;;17.14;66.86
79123;BME280;68526;44.600;26.032;2023-06-10T00:36:32;99933.84;;;17.14;66.77
79123;BME280;68526;44.600;26.032;2023-06-10T00:36:48;99944.94;;;17.14;66.71
79123;BME280;68526;44.600;26.032;2023-06-10T00:37:04;99939.38;;;17.14;66.77
79123;BME280;68526;44.600;26.032;2023-06-10T00:37:21;99944.94;;;17.14;66.69
79123;BME280;68526;44.600;26.032;2023-06-10T00:37:37;99939.38;;;17.14;66.86
79123;BME280;68526;44.600;26.032;2023-06-10T00:37:53;99942.09;;;17.11;67.16
79123;BME280;68526;44.600;26.032;2023-06-10T00:38:09;99940.91;;;17.12;67.02
79123;BME280;68526;44.600;26.032;2023-06-10T00:38:26;99941.28;;;17.10;66.96
79123;BME280;68526;44.600;26.032;2023-06-10T00:38:43;99944.84;;;17.11;67.30
79123;BME280;68526;44.600;26.032;2023-06-10T00:38:59;99936.56;;;17.11;67.14
79123;BME280;68526;44.600;26.032;2023-06-10T00:39:15;99940.91;;;17.12;67.04
79123;BME280;68526;44.600;26.032;2023-06-10T00:39:32;99934.19;;;17.13;66.81
79123;BME280;68526;44.600;26.032;2023-06-10T00:39:47;99933.41;;;17.12;67.01
79123;BME280;68526;44.600;26.032;2023-06-10T00:40:04;99928.66;;;17.13;67.06
79123;BME280;68526;44.600;26.032;2023-06-10T00:40:21;99931.44;;;17.13;67.21
79123;BME280;68526;44.600;26.032;2023-06-10T00:40:39;99932.63;;;17.12;67.11
79123;BME280;68526;44.600;26.032;2023-06-10T00:40:55;99933.41;;;17.12;66.94
79123;BME280;68526;44.600;26.032;2023-06-10T00:41:11;99937.34;;;17.11;67.05
79123;BME280;68526;44.600;26.032;2023-06-10T00:41:27;99944.84;;;17.11;66.91
79123;BME280;68526;44.600;26.032;2023-06-10T00:41:44;99935.75;;;17.10;67.16
79123;BME280;68526;44.600;26.032;2023-06-10T00:42:00;99938.53;;;17.10;67.16
79123;BME280;68526;44.600;26.032;2023-06-10T00:42:16;99941.69;;;17.08;67.14
79123;BME280;68526;44.600;26.032;2023-06-10T00:42:31;99940.50;;;17.09;67.16
79123;BME280;68526;44.600;26.032;2023-06-10T00:42:47;99945.25;;;17.09;67.11
79123;BME280;68526;44.600;26.032;2023-06-10T00:43:03;99939.72;;;17.09;67.25
79123;BME280;68526;44.600;26.032;2023-06-10T00:43:19;99934.97;;;17.09;67.40
79123;BME280;68526;44.600;26.032;2023-06-10T00:43:36;99940.88;;;17.08;67.00
79123;BME280;68526;44.600;26.032;2023-06-10T00:43:52;99936.94;;;17.09;67.22
79123;BME280;68526;44.600;26.032;2023-06-10T00:44:07;99937.66;;;17.06;67.69
79123;BME280;68526;44.600;26.032;2023-06-10T00:44:23;99938.84;;;17.05;67.63
79123;BME280;68526;44.600;26.032;2023-06-10T00:44:39;99943.22;;;17.06;67.40
79123;BME280;68526;44.600;26.032;2023-06-10T00:44:55;99942.81;;;17.07;67.53
79123;BME280;68526;44.600;26.032;2023-06-10T00:45:10;99936.50;;;17.07;67.46
79123;BME280;68526;44.600;26.032;2023-06-10T00:45:27;99943.66;;;17.08;67.55
79123;BME280;68526;44.600;26.032;2023-06-10T00:45:43;99939.25;;;17.07;67.54
79123;BME280;68526;44.600;26.032;2023-06-10T00:45:59;99934.50;;;17.04;67.61
79123;BME280;68526;44.600;26.032;2023-06-10T00:46:15;99934.06;;;17.02;67.62
79123;BME280;68526;44.600;26.032;2023-06-10T00:46:32;99939.59;;;17.02;67.62
79123;BME280;68526;44.600;26.032;2023-06-10T00:46:49;99939.22;;;17.03;67.76
79123;BME280;68526;44.600;26.032;2023-06-10T00:47:08;99941.19;;;17.03;67.58
79123;BME280;68526;44.600;26.032;2023-06-10T00:47:25;99938.06;;;17.04;67.66
79123;BME280;68526;44.600;26.032;2023-06-10T00:47:41;99937.25;;;17.04;67.69
79123;BME280;68526;44.600;26.032;2023-06-10T00:47:56;99935.28;;;17.04;67.61
79123;BME280;68526;44.600;26.032;2023-06-10T00:48:13;99939.22;;;17.03;67.92
79123;BME280;68526;44.600;26.032;2023-06-10T00:48:29;99940.03;;;17.04;67.85
79123;BME280;68526;44.600;26.032;2023-06-10T00:48:46;99931.72;;;17.04;67.53
79123;BME280;68526;44.600;26.032;2023-06-10T00:49:02;99942.78;;;17.04;67.97
79123;BME280;68526;44.600;26.032;2023-06-10T00:49:18;99937.63;;;17.02;68.09
79123;BME280;68526;44.600;26.032;2023-06-10T00:49:34;99938.00;;;17.01;67.59
79123;BME280;68526;44.600;26.032;2023-06-10T00:49:50;99941.56;;;17.01;68.06
79123;BME280;68526;44.600;26.032;2023-06-10T00:50:07;99941.19;;;17.03;67.99
79123;BME280;68526;44.600;26.032;2023-06-10T00:50:23;99938.00;;;17.01;67.98
79123;BME280;68526;44.600;26.032;2023-06-10T00:50:39;99945.50;;;17.00;68.13
79123;BME280;68526;44.600;26.032;2023-06-10T00:50:55;99937.97;;;16.97;68.22
79123;BME280;68526;44.600;26.032;2023-06-10T00:51:11;99932.03;;;16.99;68.23
79123;BME280;68526;44.600;26.032;2023-06-10T00:51:27;99935.59;;;16.99;68.18
79123;BME280;68526;44.600;26.032;2023-06-10T00:51:44;99938.38;;;16.99;67.94
79123;BME280;68526;44.600;26.032;2023-06-10T00:52:00;99943.09;;;16.99;68.08
79123;BME280;68526;44.600;26.032;2023-06-10T00:52:18;99946.63;;;16.96;68.39
79123;BME280;68526;44.600;26.032;2023-06-10T00:52:35;99939.13;;;16.96;68.01
79123;BME280;68526;44.600;26.032;2023-06-10T00:52:51;99940.72;;;16.97;68.10
79123;BME280;68526;44.600;26.032;2023-06-10T00:53:08;99935.91;;;16.94;68.37
79123;BME280;68526;44.600;26.032;2023-06-10T00:53:27;99941.03;;;16.92;68.51
79123;BME280;68526;44.600;26.032;2023-06-10T00:53:43;99940.28;;;16.95;68.55
79123;BME280;68526;44.600;26.032;2023-06-10T00:54:00;99943.88;;;16.96;68.33
79123;BME280;68526;44.600;26.032;2023-06-10T00:54:16;99938.34;;;16.96;68.19
79123;BME280;68526;44.600;26.032;2023-06-10T00:54:33;99941.09;;;16.96;68.32
79123;BME280;68526;44.600;26.032;2023-06-10T00:54:49;99942.69;;;16.97;67.94
79123;BME280;68526;44.600;26.032;2023-06-10T00:55:06;99941.91;;;16.96;68.36
79123;BME280;68526;44.600;26.032;2023-06-10T00:55:23;99942.69;;;16.97;68.46
79123;BME280;68526;44.600;26.032;2023-06-10T00:55:41;99944.22;;;16.94;68.44
79123;BME280;68526;44.600;26.032;2023-06-10T00:55:57;99949.41;;;16.96;68.35
79123;BME280;68526;44.600;26.032;2023-06-10T00:56:13;99945.00;;;16.95;68.38
79123;BME280;68526;44.600;26.032;2023-06-10T00:56:31;99945.00;;;16.95;68.52
79123;BME280;68526;44.600;26.032;2023-06-10T00:56:48;99942.25;;;16.95;68.56
79123;BME280;68526;44.600;26.032;2023-06-10T00:57:08;99945.00;;;16.95;68.37
79123;BME280;68526;44.600;26.032;2023-06-10T00:57:27;99942.69;;;16.97;68.56
79123;BME280;68526;44.600;26.032;2023-06-10T00:57:43;99943.44;;;16.94;68.42
79123;BME280;68526;44.600;26.032;2023-06-10T00:58:18;99947.44;;;16.96;68.36
79123;BME280;68526;44.600;26.032;2023-06-10T01:00:04;99944.22;;;16.94;68.46
79123;BME280;68526;44.600;26.032;2023-06-10T01:00:42;99950.94;;;16.93;68.35
79123;BME280;68526;44.600;26.032;2023-06-10T01:01:16;99950.94;;;16.93;68.54
79123;BME280;68526;44.600;26.032;2023-06-10T01:01:51;99945.41;;;16.93;68.50
79123;BME280;68526;44.600;26.032;2023-06-10T01:02:27;99946.56;;;16.92;68.38
79123;BME280;68526;44.600;26.032;2023-06-10T01:03:01;99947.38;;;16.93;68.69
79123;BME280;68526;44.600;26.032;2023-06-10T01:03:17;99948.53;;;16.92;68.46
79123;BME280;68526;44.600;26.032;2023-06-10T01:03:52;99946.56;;;16.92;68.46
79123;BME280;68526;44.600;26.032;2023-06-10T01:05:21;99947.31;;;16.89;68.81
79123;BME280;68526;44.600;26.032;2023-06-10T01:07:14;99950.88;;;16.90;68.55
79123;BME280;68526;44.600;26.032;2023-06-10T01:07:37;99945.34;;;16.90;68.67
79123;BME280;68526;44.600;26.032;2023-06-10T01:08:01;99940.56;;;16.87;68.43
79123;BME280;68526;44.600;26.032;2023-06-10T01:08:24;99952.84;;;16.89;68.54
79123;BME280;68526;44.600;26.032;2023-06-10T01:08:52;99947.69;;;16.88;68.53
79123;BME280;68526;44.600;26.032;2023-06-10T01:09:14;99951.63;;;16.87;68.46
79123;BME280;68526;44.600;26.032;2023-06-10T01:09:40;99951.25;;;16.88;68.72
79123;BME280;68526;44.600;26.032;2023-06-10T01:10:02;99943.38;;;16.90;68.68
79123;BME280;68526;44.600;26.032;2023-06-10T01:10:25;99954.00;;;16.88;68.84
79123;BME280;68526;44.600;26.032;2023-06-10T01:10:50;99955.97;;;16.88;68.66
79123;BME280;68526;44.600;26.032;2023-06-10T01:11:08;99947.69;;;16.88;68.83
79123;BME280;68526;44.600;26.032;2023-06-10T01:11:34;99948.44;;;16.85;69.31
79123;BME280;68526;44.600;26.032;2023-06-10T01:11:57;99953.59;;;16.86;69.17
79123;BME280;68526;44.600;26.032;2023-06-10T01:12:19;99938.97;;;16.86;69.23
79123;BME280;68526;44.600;26.032;2023-06-10T01:12:41;99945.28;;;16.86;69.14
79123;BME280;68526;44.600;26.032;2023-06-10T01:12:59;99950.03;;;16.86;69.25
79123;BME280;68526;44.600;26.032;2023-06-10T01:13:18;99937.31;;;16.81;69.41
79123;BME280;68526;44.600;26.032;2023-06-10T01:13:40;99947.25;;;16.86;69.02
79123;BME280;68526;44.600;26.032;2023-06-10T01:13:58;99946.09;;;16.87;69.04
79123;BME280;68526;44.600;26.032;2023-06-10T01:14:15;99946.09;;;16.87;69.30
79123;BME280;68526;44.600;26.032;2023-06-10T01:14:32;99953.22;;;16.88;69.24
79123;BME280;68526;44.600;26.032;2023-06-10T01:14:48;99950.44;;;16.88;69.32
79123;BME280;68526;44.600;26.032;2023-06-10T01:15:05;99943.31;;;16.87;69.45
79123;BME280;68526;44.600;26.032;2023-06-10T01:15:22;99948.06;;;16.86;69.32
79123;BME280;68526;44.600;26.032;2023-06-10T01:15:38;99947.69;;;16.88;69.40
79123;BME280;68526;44.600;26.032;2023-06-10T01:15:55;99950.44;;;16.88;69.29
79123;BME280;68526;44.600;26.032;2023-06-10T01:16:11;99951.63;;;16.87;69.40
79123;BME280;68526;44.600;26.032;2023-06-10T01:16:28;99945.28;;;16.86;69.21
79123;BME280;68526;44.600;26.032;2023-06-10T01:16:44;99950.81;;;16.86;69.40
79123;BME280;68526;44.600;26.032;2023-06-10T01:17:01;99947.69;;;16.88;69.35
79123;BME280;68526;44.600;26.032;2023-06-10T01:17:18;99951.25;;;16.88;69.59
79123;BME280;68526;44.600;26.032;2023-06-10T01:17:37;99949.66;;;16.87;69.60
79123;BME280;68526;44.600;26.032;2023-06-10T01:18:08;99957.94;;;16.87;69.38
79123;BME280;68526;44.600;26.032;2023-06-10T01:18:29;99947.69;;;16.88;69.26
79123;BME280;68526;44.600;26.032;2023-06-10T01:18:46;99946.09;;;16.87;69.59
79123;BME280;68526;44.600;26.032;2023-06-10T01:19:02;99946.03;;;16.83;69.69
79123;BME280;68526;44.600;26.032;2023-06-10T01:19:18;99941.28;;;16.83;69.49
79123;BME280;68526;44.600;26.032;2023-06-10T01:19:34;99953.97;;;16.85;69.50
79123;BME280;68526;44.600;26.032;2023-06-10T01:19:55;99943.69;;;16.85;69.67
79123;BME280;68526;44.600;26.032;2023-06-10T01:20:11;99953.91;;;16.81;69.81
79123;BME280;68526;44.600;26.032;2023-06-10T01:20:28;99944.00;;;16.80;69.66
79123;BME280;68526;44.600;26.032;2023-06-10T01:20:47;99949.97;;;16.82;69.59
79123;BME280;68526;44.600;26.032;2023-06-10T01:21:04;99948.75;;;16.79;69.87
79123;BME280;68526;44.600;26.032;2023-06-10T01:21:21;99944.44;;;16.82;69.55
79123;BME280;68526;44.600;26.032;2023-06-10T01:21:39;99951.13;;;16.81;69.63
79123;BME280;68526;44.600;26.032;2023-06-10T01:21:55;99948.00;;;16.82;69.53
79123;BME280;68526;44.600;26.032;2023-06-10T01:22:12;99946.41;;;16.81;70.06
79123;BME280;68526;44.600;26.032;2023-06-10T01:22:31;99951.94;;;16.81;69.56
79123;BME280;68526;44.600;26.032;2023-06-10T01:22:47;99947.19;;;16.82;69.55
79123;BME280;68526;44.600;26.032;2023-06-10T01:23:03;99942.03;;;16.80;69.56
79123;BME280;68526;44.600;26.032;2023-06-10T01:23:19;99949.97;;;16.82;69.48
79123;BME280;68526;44.600;26.032;2023-06-10T01:23:35;99946.78;;;16.80;69.69
79123;BME280;68526;44.600;26.032;2023-06-10T01:23:51;99946.41;;;16.81;69.55
79123;BME280;68526;44.600;26.032;2023-06-10T01:24:08;99948.38;;;16.81;69.19
79123;BME280;68526;44.600;26.032;2023-06-10T01:24:26;99947.56;;;16.80;69.10
79123;BME280;68526;44.600;26.032;2023-06-10T01:24:42;99951.94;;;16.81;69.64
79123;BME280;68526;44.600;26.032;2023-06-10T01:24:59;99941.25;;;16.80;69.46
79123;BME280;68526;44.600;26.032;2023-06-10T01:25:14;99949.16;;;16.81;69.46
79123;BME280;68526;44.600;26.032;2023-06-10T01:25:31;99952.31;;;16.80;69.59
79123;BME280;68526;44.600;26.032;2023-06-10T01:25:53;99948.38;;;16.81;69.32
79123;BME280;68526;44.600;26.032;2023-06-10T01:26:14;99951.53;;;16.79;69.42
79123;BME280;68526;44.600;26.032;2023-06-10T01:26:32;99946.78;;;16.80;69.21
79123;BME280;68526;44.600;26.032;2023-06-10T01:26:51;99951.13;;;16.81;69.42
79123;BME280;68526;44.600;26.032;2023-06-10T01:27:13;99945.19;;;16.79;69.30
79123;BME280;68526;44.600;26.032;2023-06-10T01:27:33;99949.53;;;16.80;69.36
79123;BME280;68526;44.600;26.032;2023-06-10T01:28:01;99949.53;;;16.80;70.34
79123;BME280;68526;44.600;26.032;2023-06-10T01:28:20;99949.09;;;16.78;69.69
79123;BME280;68526;44.600;26.032;2023-06-10T01:28:42;99945.91;;;16.76;69.72
79123;BME280;68526;44.600;26.032;2023-06-10T01:29:04;99954.28;;;16.79;69.46
79123;BME280;68526;44.600;26.032;2023-06-10T01:29:35;99950.72;;;16.79;69.41
79123;BME280;68526;44.600;26.032;2023-06-10T01:29:58;99946.34;;;16.78;69.80
79123;BME280;68526;44.600;26.032;2023-06-10T01:30:18;99946.72;;;16.76;69.67
79123;BME280;68526;44.600;26.032;2023-06-10T01:30:44;99951.44;;;16.76;69.76
79123;BME280;68526;44.600;26.032;2023-06-10T01:31:07;99949.47;;;16.76;69.60
79123;BME280;68526;44.600;26.032;2023-06-10T01:31:31;99944.31;;;16.75;69.71
79123;BME280;68526;44.600;26.032;2023-06-10T01:31:57;99945.91;;;16.76;69.52
79123;BME280;68526;44.600;26.032;2023-06-10T01:32:19;99951.44;;;16.76;69.61
79123;BME280;68526;44.600;26.032;2023-06-10T01:32:39;99946.34;;;16.78;69.67
79123;BME280;68526;44.600;26.032;2023-06-10T01:32:58;99946.72;;;16.76;69.68
79123;BME280;68526;44.600;26.032;2023-06-10T01:33:17;99948.31;;;16.77;69.61
79123;BME280;68526;44.600;26.032;2023-06-10T01:33:36;99953.84;;;16.77;69.49
79123;BME280;68526;44.600;26.032;2023-06-10T01:33:53;99945.53;;;16.77;69.54
79123;BME280;68526;44.600;26.032;2023-06-10T01:34:12;99949.09;;;16.78;69.57
79123;BME280;68526;44.600;26.032;2023-06-10T01:34:31;99951.06;;;16.77;69.56
79123;BME280;68526;44.600;26.032;2023-06-10T01:34:48;99945.53;;;16.77;69.55
79123;BME280;68526;44.600;26.032;2023-06-10T01:35:05;99947.50;;;16.77;69.68
79123;BME280;68526;44.600;26.032;2023-06-10T01:35:24;99951.75;;;16.71;69.95
79123;BME280;68526;44.600;26.032;2023-06-10T01:35:41;99953.34;;;16.72;69.83
79123;BME280;68526;44.600;26.032;2023-06-10T01:35:59;99949.78;;;16.71;69.77
79123;BME280;68526;44.600;26.032;2023-06-10T01:36:21;99943.91;;;16.73;69.58
79123;BME280;68526;44.600;26.032;2023-06-10T01:36:37;99950.59;;;16.72;69.73
79123;BME280;68526;44.600;26.032;2023-06-10T01:36:55;99954.22;;;16.76;69.72
79123;BME280;68526;44.600;26.032;2023-06-10T01:37:16;99947.03;;;16.71;70.21
79123;BME280;68526;44.600;26.032;2023-06-10T01:37:33;99952.22;;;16.73;69.84